createdAt,value
2018-08-04T00:02:03.488Z,24.18
2018-08-04T00:04:31.899Z,24.07
2018-08-04T00:07:00.236Z,24.04
2018-08-04T00:09:28.614Z,24.01
2018-08-04T00:11:57.007Z,23.98
2018-08-04T00:14:25.326Z,24.13
2018-08-04T00:16:53.660Z,24.13
2018-08-04T00:19:22.443Z,24.06
2018-08-04T00:21:50.767Z,24.04
2018-08-04T00:24:19.072Z,24.00
2018-08-04T00:26:47.734Z,23.99
2018-08-04T00:29:16.754Z,23.94
2018-08-04T00:31:45.152Z,23.92
2018-08-04T00:34:13.487Z,23.87
2018-08-04T00:36:41.858Z,23.75
2018-08-04T00:39:10.231Z,23.77
2018-08-04T00:41:38.555Z,23.67
2018-08-04T00:44:06.961Z,23.69
2018-08-04T00:46:35.296Z,23.73
2018-08-04T00:49:03.670Z,23.66
2018-08-04T00:51:32.123Z,23.64
2018-08-04T00:54:00.483Z,23.60
2018-08-04T00:56:28.847Z,23.57
2018-08-04T00:58:57.180Z,23.54
2018-08-04T01:01:25.562Z,23.57
2018-08-04T01:03:53.946Z,23.51
2018-08-04T01:06:22.349Z,23.48
2018-08-04T01:08:50.677Z,23.45
2018-08-04T01:11:19.006Z,23.50
2018-08-04T01:13:47.423Z,23.43
2018-08-04T01:16:15.759Z,23.12
2018-08-04T01:18:44.161Z,22.89
2018-08-04T01:21:12.581Z,22.81
2018-08-04T01:23:40.940Z,22.83
2018-08-04T01:26:09.299Z,22.78
2018-08-04T01:28:37.666Z,22.88
2018-08-04T01:31:06.077Z,22.87
2018-08-04T01:33:34.401Z,22.87
2018-08-04T01:36:02.745Z,22.84
2018-08-04T01:38:31.083Z,22.63
2018-08-04T01:40:59.534Z,22.73
2018-08-04T01:43:27.888Z,22.74
2018-08-04T01:45:56.368Z,22.81
2018-08-04T01:48:24.732Z,22.84
2018-08-04T01:50:53.070Z,22.82
2018-08-04T01:53:21.491Z,22.80
2018-08-04T01:55:49.826Z,22.66
2018-08-04T01:58:18.293Z,22.69
2018-08-04T02:00:46.627Z,22.66
2018-08-04T02:03:15.043Z,22.54
2018-08-04T02:05:43.389Z,22.48
2018-08-04T02:08:11.717Z,22.54
2018-08-04T02:10:40.114Z,22.40
2018-08-04T02:13:08.456Z,22.39
2018-08-04T02:15:36.817Z,22.21
2018-08-04T02:18:05.295Z,22.16
2018-08-04T02:20:33.880Z,22.16
2018-08-04T02:23:02.195Z,22.19
2018-08-04T02:25:30.494Z,22.19
2018-08-04T02:27:58.932Z,22.11
2018-08-04T02:30:27.283Z,21.84
2018-08-04T02:32:55.693Z,21.80
2018-08-04T02:35:24.023Z,21.85
2018-08-04T02:37:52.362Z,21.91
2018-08-04T02:40:20.731Z,21.92
2018-08-04T02:42:49.114Z,22.00
2018-08-04T02:45:17.488Z,21.85
2018-08-04T02:47:45.829Z,21.73
2018-08-04T02:50:14.157Z,21.30
2018-08-04T02:52:42.542Z,21.34
2018-08-04T02:55:10.925Z,21.54
2018-08-04T02:57:39.352Z,21.54
2018-08-04T03:00:08.022Z,21.46
2018-08-04T03:02:36.381Z,21.57
2018-08-04T03:05:05.038Z,21.62
2018-08-04T03:07:33.368Z,21.67
2018-08-04T03:10:01.722Z,21.62
2018-08-04T03:12:30.110Z,21.59
2018-08-04T03:14:58.552Z,21.54
2018-08-04T03:17:26.932Z,21.51
2018-08-04T03:19:55.315Z,21.28
2018-08-04T03:22:23.727Z,21.02
2018-08-04T03:24:52.100Z,20.86
2018-08-04T03:27:20.564Z,21.03
2018-08-04T03:29:48.999Z,21.18
2018-08-04T03:32:17.397Z,21.11
2018-08-04T03:34:46.816Z,21.18
2018-08-04T03:37:15.202Z,21.15
2018-08-04T03:39:43.687Z,21.23
2018-08-04T03:42:12.041Z,21.14
2018-08-04T03:44:40.367Z,21.10
2018-08-04T03:47:08.737Z,21.06
2018-08-04T03:49:37.100Z,20.93
2018-08-04T03:52:05.454Z,20.94
2018-08-04T03:54:33.775Z,20.94
2018-08-04T03:57:02.208Z,20.96
2018-08-04T03:59:30.616Z,20.80
2018-08-04T04:01:58.965Z,20.68
2018-08-04T04:04:27.403Z,20.51
2018-08-04T04:06:55.771Z,20.50
2018-08-04T04:09:24.076Z,20.62
2018-08-04T04:11:52.419Z,20.59
2018-08-04T04:14:20.800Z,20.68
2018-08-04T04:16:49.167Z,20.57
2018-08-04T04:19:17.457Z,20.69
2018-08-04T04:21:45.837Z,20.67
2018-08-04T04:24:14.249Z,20.52
2018-08-04T04:26:42.598Z,20.56
2018-08-04T04:29:10.956Z,20.51
2018-08-04T04:31:39.362Z,20.58
2018-08-04T04:34:07.649Z,20.61
2018-08-04T04:36:36.125Z,20.49
2018-08-04T04:39:06.575Z,20.46
2018-08-04T04:41:35.848Z,20.59
2018-08-04T04:44:04.323Z,20.71
2018-08-04T04:46:36.795Z,20.76
2018-08-04T04:49:05.563Z,20.76
2018-08-04T04:51:33.983Z,20.80
2018-08-04T04:54:02.439Z,20.62
2018-08-04T04:56:30.782Z,20.61
2018-08-04T04:58:59.108Z,20.79
2018-08-04T05:01:27.457Z,20.84
2018-08-04T05:03:55.780Z,20.89
2018-08-04T05:06:24.123Z,20.79
2018-08-04T05:08:52.501Z,20.80
2018-08-04T05:11:20.850Z,20.93
2018-08-04T05:13:51.986Z,20.81
2018-08-04T05:16:22.142Z,20.93
2018-08-04T05:18:50.524Z,21.04
2018-08-04T05:21:18.917Z,20.96
2018-08-04T05:23:47.312Z,20.91
2018-08-04T05:26:15.778Z,21.01
2018-08-04T05:28:44.255Z,20.97
2018-08-04T05:31:12.720Z,21.07
2018-08-04T05:33:41.305Z,21.08
2018-08-04T05:36:10.059Z,21.11
2018-08-04T05:38:38.449Z,21.02
2018-08-04T05:41:06.937Z,21.10
2018-08-04T05:43:35.505Z,21.20
2018-08-04T05:46:03.835Z,21.27
2018-08-04T05:48:32.156Z,21.48
2018-08-04T05:51:00.589Z,21.59
2018-08-04T05:53:29.032Z,21.58
2018-08-04T05:55:57.431Z,21.62
2018-08-04T05:58:26.342Z,21.82
2018-08-04T06:00:55.244Z,21.90
2018-08-04T06:03:23.682Z,22.09
2018-08-04T06:05:52.434Z,22.34
2018-08-04T06:08:20.866Z,22.82
2018-08-04T06:10:49.513Z,23.01
2018-08-04T06:13:18.006Z,23.47
2018-08-04T06:15:46.466Z,23.45
2018-08-04T06:18:14.801Z,23.75
2018-08-04T06:20:43.850Z,24.12
2018-08-04T06:23:12.277Z,24.66
2018-08-04T06:25:41.003Z,25.10
2018-08-04T06:28:09.976Z,25.27
2018-08-04T06:30:38.421Z,25.93
2018-08-04T06:33:06.876Z,26.17
2018-08-04T06:35:38.176Z,25.66
2018-08-04T06:38:06.712Z,25.66
2018-08-04T06:40:35.292Z,25.56
2018-08-04T06:43:03.668Z,25.74
2018-08-04T06:45:32.580Z,26.06
2018-08-04T06:48:01.427Z,26.63
2018-08-04T06:50:29.809Z,26.48
2018-08-04T06:52:58.253Z,26.28
2018-08-04T06:55:26.696Z,26.77
2018-08-04T06:57:55.587Z,26.76
2018-08-04T07:00:23.951Z,26.66
2018-08-04T07:02:52.621Z,26.20
2018-08-04T07:05:21.119Z,26.22
2018-08-04T07:07:50.137Z,25.87
2018-08-04T07:10:18.650Z,25.33
2018-08-04T07:12:47.106Z,25.45
2018-08-04T07:15:15.535Z,25.28
2018-08-04T07:17:43.856Z,25.15
2018-08-04T07:20:12.265Z,25.07
2018-08-04T07:22:40.599Z,24.84
2018-08-04T07:25:08.943Z,24.96
2018-08-04T07:27:37.327Z,25.06
2018-08-04T07:30:11.967Z,24.77
2018-08-04T07:32:45.832Z,24.63
2018-08-04T07:35:14.205Z,24.47
2018-08-04T07:37:43.443Z,24.71
2018-08-04T07:40:11.779Z,24.83
2018-08-04T07:42:40.622Z,24.97
2018-08-04T07:45:09.167Z,24.70
2018-08-04T07:47:37.843Z,24.68
2018-08-04T07:50:06.622Z,25.13
2018-08-04T07:52:35.078Z,25.20
2018-08-04T07:55:03.597Z,25.33
2018-08-04T07:57:31.951Z,25.56
2018-08-04T08:00:00.360Z,25.59
2018-08-04T08:02:28.803Z,25.81
2018-08-04T08:04:57.282Z,25.64
2018-08-04T08:07:26.204Z,25.42
2018-08-04T08:09:54.852Z,25.22
2018-08-04T08:12:23.626Z,25.42
2018-08-04T08:14:51.935Z,25.40
2018-08-04T08:17:20.390Z,25.54
2018-08-04T08:19:48.736Z,25.89
2018-08-04T08:22:17.156Z,25.95
2018-08-04T08:24:45.584Z,26.21
2018-08-04T08:27:13.954Z,26.34
2018-08-04T08:29:42.315Z,26.53
2018-08-04T08:32:10.743Z,26.62
2018-08-04T08:34:41.019Z,26.23
2018-08-04T08:37:09.758Z,26.25
2018-08-04T08:39:38.149Z,26.38
2018-08-04T08:42:06.724Z,26.29
2018-08-04T08:44:35.063Z,26.54
2018-08-04T08:47:03.409Z,26.60
2018-08-04T08:49:31.828Z,26.45
2018-08-04T08:52:00.232Z,26.76
2018-08-04T08:54:28.883Z,26.81
2018-08-04T08:56:57.806Z,26.70
2018-08-04T08:59:26.222Z,26.88
2018-08-04T09:01:54.600Z,27.11
2018-08-04T09:04:22.971Z,27.30
2018-08-04T09:06:52.147Z,27.21
2018-08-04T09:09:20.535Z,27.47
2018-08-04T09:11:48.888Z,27.37
2018-08-04T09:14:17.267Z,27.46
2018-08-04T09:16:45.723Z,27.55
2018-08-04T09:19:14.090Z,27.79
2018-08-04T09:21:42.442Z,27.82
2018-08-04T09:24:10.798Z,27.64
2018-08-04T09:26:39.139Z,27.90
2018-08-04T09:29:07.474Z,27.83
2018-08-04T09:31:36.060Z,28.02
2018-08-04T09:34:04.423Z,28.09
2018-08-04T09:36:32.793Z,28.04
2018-08-04T09:39:01.228Z,28.06
2018-08-04T09:41:29.619Z,28.30
2018-08-04T09:43:58.015Z,28.47
2018-08-04T09:46:26.443Z,28.46
2018-08-04T09:48:54.780Z,28.60
2018-08-04T09:51:23.186Z,28.35
2018-08-04T09:53:51.562Z,28.32
2018-08-04T09:56:19.910Z,28.53
2018-08-04T09:58:48.324Z,28.42
2018-08-04T10:01:21.927Z,28.30
2018-08-04T10:03:50.281Z,28.21
2018-08-04T10:06:18.683Z,28.49
2018-08-04T10:08:48.052Z,28.62
2018-08-04T10:11:16.403Z,28.62
2018-08-04T10:13:45.560Z,28.72
2018-08-04T10:16:13.909Z,28.71
2018-08-04T10:18:42.289Z,28.68
2018-08-04T10:21:10.620Z,28.75
2018-08-04T10:23:38.977Z,28.77
2018-08-04T10:26:07.341Z,28.87
2018-08-04T10:28:36.070Z,29.08
2018-08-04T10:31:04.464Z,28.97
2018-08-04T10:33:33.070Z,29.05
2018-08-04T10:36:01.367Z,29.15
2018-08-04T10:38:29.732Z,29.19
2018-08-04T10:40:58.019Z,29.25
2018-08-04T10:43:26.427Z,29.34
2018-08-04T10:45:54.889Z,29.36
2018-08-04T10:48:23.337Z,29.48
2018-08-04T10:50:51.751Z,29.64
2018-08-04T10:53:20.196Z,29.45
2018-08-04T10:55:48.601Z,29.27
2018-08-04T10:58:16.978Z,29.27
2018-08-04T11:00:45.413Z,29.33
2018-08-04T11:03:13.796Z,29.39
2018-08-04T11:05:42.107Z,29.38
2018-08-04T11:08:10.460Z,29.07
2018-08-04T11:10:38.895Z,29.32
2018-08-04T11:13:07.966Z,29.48
2018-08-04T11:15:36.440Z,29.62
2018-08-04T11:18:04.868Z,29.65
2018-08-04T11:20:33.183Z,29.82
2018-08-04T11:23:01.509Z,29.85
2018-08-04T11:25:29.889Z,29.87
2018-08-04T11:27:58.262Z,29.91
2018-08-04T11:30:26.601Z,29.92
2018-08-04T11:32:54.934Z,30.10
2018-08-04T11:35:23.335Z,30.08
2018-08-04T11:37:51.797Z,30.13
2018-08-04T11:40:20.251Z,30.04
2018-08-04T11:42:48.668Z,30.05
2018-08-04T11:45:17.019Z,30.10
2018-08-04T11:47:45.414Z,30.27
2018-08-04T11:50:13.807Z,30.41
2018-08-04T11:52:42.158Z,30.49
2018-08-04T11:55:10.709Z,30.45
2018-08-04T11:57:39.042Z,30.43
2018-08-04T12:00:07.392Z,30.33
2018-08-04T12:02:35.746Z,30.26
2018-08-04T12:05:04.197Z,30.44
2018-08-04T12:07:32.766Z,30.48
2018-08-04T12:10:01.105Z,30.55
2018-08-04T12:12:29.480Z,30.64
2018-08-04T12:14:57.793Z,30.51
2018-08-04T12:17:26.186Z,30.44
2018-08-04T12:19:54.508Z,30.53
2018-08-04T12:22:22.994Z,30.57
2018-08-04T12:24:51.753Z,30.41
2018-08-04T12:27:20.152Z,30.49
2018-08-04T12:29:48.568Z,30.52
2018-08-04T12:32:17.175Z,30.80
2018-08-04T12:34:45.510Z,30.73
2018-08-04T12:37:13.890Z,30.85
2018-08-04T12:39:42.896Z,31.01
2018-08-04T12:42:11.271Z,30.90
2018-08-04T12:44:39.722Z,30.81
2018-08-04T12:47:08.231Z,30.77
2018-08-04T12:49:36.753Z,30.81
2018-08-04T12:52:05.135Z,30.88
2018-08-04T12:54:33.474Z,31.00
2018-08-04T12:57:02.332Z,30.92
2018-08-04T12:59:30.803Z,30.75
2018-08-04T13:01:59.162Z,30.91
2018-08-04T13:04:27.791Z,30.90
2018-08-04T13:06:56.166Z,31.00
2018-08-04T13:09:24.500Z,30.96
2018-08-04T13:11:54.632Z,31.00
2018-08-04T13:14:23.075Z,31.02
2018-08-04T13:16:51.412Z,31.13
2018-08-04T13:19:19.739Z,31.06
2018-08-04T13:21:48.071Z,30.97
2018-08-04T13:24:16.421Z,31.04
2018-08-04T13:26:44.850Z,31.22
2018-08-04T13:29:13.700Z,31.23
2018-08-04T13:31:42.010Z,31.28
2018-08-04T13:34:10.308Z,31.24
2018-08-04T13:36:38.664Z,31.38
2018-08-04T13:39:08.705Z,31.42
2018-08-04T13:41:37.516Z,31.43
2018-08-04T13:44:05.936Z,31.40
2018-08-04T13:46:34.353Z,31.41
2018-08-04T13:49:02.700Z,31.38
2018-08-04T13:51:31.044Z,31.40
2018-08-04T13:53:59.336Z,31.42
2018-08-04T13:56:27.863Z,31.30
2018-08-04T13:58:56.527Z,31.24
2018-08-04T14:01:24.972Z,31.32
2018-08-04T14:03:54.867Z,31.26
2018-08-04T14:06:23.475Z,31.37
2018-08-04T14:08:52.299Z,31.37
2018-08-04T14:11:20.980Z,31.26
2018-08-04T14:13:49.272Z,31.43
2018-08-04T14:16:17.680Z,31.56
2018-08-04T14:18:46.230Z,31.62
2018-08-04T14:21:14.763Z,31.46
2018-08-04T14:23:43.344Z,31.43
2018-08-04T14:26:11.710Z,31.47
2018-08-04T14:28:40.098Z,31.63
2018-08-04T14:31:08.418Z,31.52
2018-08-04T14:33:38.549Z,31.64
2018-08-04T14:36:07.024Z,31.58
2018-08-04T14:38:38.265Z,31.48
2018-08-04T14:41:06.850Z,31.61
2018-08-04T14:43:37.520Z,31.56
2018-08-04T14:46:06.790Z,31.43
2018-08-04T14:48:35.132Z,31.42
2018-08-04T14:51:03.547Z,31.57
2018-08-04T14:53:31.986Z,31.41
2018-08-04T14:56:00.549Z,31.43
2018-08-04T14:58:28.888Z,31.47
2018-08-04T15:00:57.297Z,31.53
2018-08-04T15:03:25.674Z,31.59
2018-08-04T15:05:54.567Z,31.55
2018-08-04T15:08:22.907Z,31.59
2018-08-04T15:10:51.267Z,31.53
2018-08-04T15:13:19.690Z,31.52
2018-08-04T15:15:48.271Z,31.51
2018-08-04T15:18:16.892Z,31.54
2018-08-04T15:20:45.274Z,31.49
2018-08-04T15:23:14.947Z,31.43
2018-08-04T15:25:43.533Z,31.50
2018-08-04T15:28:13.708Z,31.52
2018-08-04T15:30:42.140Z,31.51
2018-08-04T15:33:12.537Z,31.51
2018-08-04T15:35:40.899Z,31.57
2018-08-04T15:38:10.740Z,31.52
2018-08-04T15:40:39.524Z,31.45
2018-08-04T15:43:08.115Z,31.38
2018-08-04T15:45:38.914Z,31.44
2018-08-04T15:48:09.456Z,31.38
2018-08-04T15:50:40.044Z,31.42
2018-08-04T15:53:10.572Z,31.39
2018-08-04T15:55:41.610Z,31.48
2018-08-04T15:58:12.675Z,31.35
2018-08-04T16:00:40.996Z,31.35
2018-08-04T16:03:09.531Z,31.38
2018-08-04T16:05:37.851Z,31.27
2018-08-04T16:08:06.277Z,31.26
2018-08-04T16:10:34.684Z,31.14
2018-08-04T16:13:03.055Z,31.20
2018-08-04T16:15:31.682Z,31.09
2018-08-04T16:18:00.051Z,31.20
2018-08-04T16:20:28.363Z,31.22
2018-08-04T16:22:56.746Z,31.21
2018-08-04T16:25:25.150Z,31.09
2018-08-04T16:27:53.529Z,31.18
2018-08-04T16:30:21.895Z,31.03
2018-08-04T16:32:50.515Z,31.09
2018-08-04T16:35:19.119Z,31.08
2018-08-04T16:37:47.593Z,31.16
2018-08-04T16:40:15.957Z,31.12
2018-08-04T16:42:44.298Z,30.99
2018-08-04T16:45:12.795Z,31.00
2018-08-04T16:47:41.484Z,31.00
2018-08-04T16:50:09.975Z,30.79
2018-08-04T16:52:38.472Z,30.75
2018-08-04T16:55:06.829Z,30.76
2018-08-04T16:57:35.178Z,30.66
2018-08-04T17:00:03.664Z,30.69
2018-08-04T17:02:32.169Z,30.66
2018-08-04T17:05:01.075Z,30.62
2018-08-04T17:07:29.729Z,30.55
2018-08-04T17:09:58.083Z,30.61
2018-08-04T17:12:27.207Z,30.50
2018-08-04T17:14:55.514Z,30.53
2018-08-04T17:17:25.168Z,30.61
2018-08-04T17:19:53.498Z,30.56
2018-08-04T17:22:23.191Z,30.56
2018-08-04T17:24:51.665Z,30.46
2018-08-04T17:27:20.323Z,30.49
2018-08-04T17:29:49.050Z,30.37
2018-08-04T17:32:17.412Z,30.33
2018-08-04T17:34:45.798Z,30.35
2018-08-04T17:37:15.138Z,30.25
2018-08-04T17:39:43.521Z,30.22
2018-08-04T17:42:11.896Z,30.19
2018-08-04T17:44:40.240Z,30.20
2018-08-04T17:47:08.606Z,30.13
2018-08-04T17:49:37.009Z,30.17
2018-08-04T17:52:05.406Z,30.02
2018-08-04T17:54:33.758Z,30.02
2018-08-04T17:57:02.182Z,29.97
2018-08-04T17:59:30.522Z,29.71
2018-08-04T18:01:59.174Z,29.75
2018-08-04T18:04:27.585Z,29.69
2018-08-04T18:06:55.940Z,29.63
2018-08-04T18:09:24.511Z,29.52
2018-08-04T18:11:52.939Z,29.49
2018-08-04T18:14:21.375Z,29.47
2018-08-04T18:16:49.705Z,29.42
2018-08-04T18:19:18.073Z,29.42
2018-08-04T18:21:46.478Z,29.31
2018-08-04T18:24:14.824Z,29.28
2018-08-04T18:26:43.173Z,29.14
2018-08-04T18:29:11.536Z,29.14
2018-08-04T18:31:39.937Z,29.15
2018-08-04T18:34:08.389Z,28.97
2018-08-04T18:36:36.792Z,28.93
2018-08-04T18:39:07.104Z,28.88
2018-08-04T18:41:35.439Z,28.84
2018-08-04T18:44:04.062Z,28.81
2018-08-04T18:46:32.380Z,28.70
2018-08-04T18:49:00.772Z,28.71
2018-08-04T18:51:29.162Z,28.55
2018-08-04T18:53:57.556Z,28.63
2018-08-04T18:56:25.875Z,28.53
2018-08-04T18:58:54.177Z,28.47
2018-08-04T19:01:22.509Z,28.45
2018-08-04T19:03:50.930Z,28.42
2018-08-04T19:06:19.280Z,28.39
2018-08-04T19:08:47.580Z,28.33
2018-08-04T19:11:15.949Z,28.30
2018-08-04T19:13:44.244Z,28.24
2018-08-04T19:16:14.957Z,28.03
2018-08-04T19:18:44.291Z,28.04
2018-08-04T19:21:12.700Z,28.00
2018-08-04T19:23:41.068Z,27.97
2018-08-04T19:26:09.443Z,27.91
2018-08-04T19:28:37.937Z,27.85
2018-08-04T19:31:06.469Z,27.84
2018-08-04T19:33:35.820Z,27.76
2018-08-04T19:36:04.222Z,27.83
2018-08-04T19:38:32.508Z,27.68
2018-08-04T19:41:00.811Z,27.72
2018-08-04T19:43:29.472Z,27.69
2018-08-04T19:45:57.793Z,27.73
2018-08-04T19:48:26.120Z,27.67
2018-08-04T19:50:54.548Z,27.61
2018-08-04T19:53:23.772Z,27.56
2018-08-04T19:55:52.272Z,27.51
2018-08-04T19:58:20.640Z,27.45
2018-08-04T20:00:49.022Z,27.51
2018-08-04T20:03:17.361Z,27.46
2018-08-04T20:05:45.708Z,27.46
2018-08-04T20:08:14.064Z,27.36
2018-08-04T20:10:42.438Z,27.31
2018-08-04T20:13:10.815Z,27.22
2018-08-04T20:15:39.284Z,27.34
2018-08-04T20:18:07.607Z,27.39
2018-08-04T20:20:35.937Z,27.36
2018-08-04T20:23:04.316Z,27.38
2018-08-04T20:25:32.962Z,27.44
2018-08-04T20:28:02.043Z,27.54
2018-08-04T20:30:30.535Z,27.32
2018-08-04T20:32:59.658Z,27.27
2018-08-04T20:35:28.373Z,27.38
2018-08-04T20:37:58.615Z,27.20
2018-08-04T20:40:27.396Z,27.41
2018-08-04T20:42:55.760Z,27.37
2018-08-04T20:45:24.063Z,27.37
2018-08-04T20:47:52.455Z,26.94
2018-08-04T20:50:20.803Z,27.20
2018-08-04T20:52:49.235Z,27.00
2018-08-04T20:55:17.868Z,27.15
2018-08-04T20:57:46.227Z,27.21
2018-08-04T21:00:14.603Z,26.95
2018-08-04T21:02:50.778Z,27.02
2018-08-04T21:05:19.261Z,26.89
2018-08-04T21:07:47.779Z,26.87
2018-08-04T21:10:16.127Z,26.77
2018-08-04T21:12:44.523Z,26.71
2018-08-04T21:15:12.947Z,26.53
2018-08-04T21:17:41.277Z,26.45
2018-08-04T21:20:09.664Z,26.47
2018-08-04T21:22:37.999Z,26.39
2018-08-04T21:25:06.618Z,26.25
2018-08-04T21:27:34.988Z,26.19
2018-08-04T21:30:03.450Z,26.14
2018-08-04T21:32:32.520Z,26.07
2018-08-04T21:35:01.418Z,25.89
2018-08-04T21:37:29.791Z,25.90
2018-08-04T21:39:58.119Z,25.89
2018-08-04T21:42:26.512Z,25.67
2018-08-04T21:44:54.875Z,25.74
2018-08-04T21:47:23.143Z,25.63
2018-08-04T21:49:52.232Z,25.65
2018-08-04T21:52:20.581Z,25.65
2018-08-04T21:54:49.409Z,25.69
2018-08-04T21:57:18.077Z,25.70
2018-08-04T21:59:46.460Z,25.44
2018-08-04T22:02:14.852Z,25.54
2018-08-04T22:04:43.159Z,25.62
2018-08-04T22:07:48.750Z,25.56
2018-08-04T22:10:17.180Z,25.49
2018-08-04T22:12:45.638Z,25.50
2018-08-04T22:15:15.214Z,25.32
2018-08-04T22:17:44.562Z,25.29
2018-08-04T22:20:15.759Z,25.18
2018-08-04T22:22:44.467Z,25.16
2018-08-04T22:25:14.100Z,25.11
2018-08-04T22:27:42.457Z,24.98
2018-08-04T22:30:12.399Z,25.07
2018-08-04T22:32:41.478Z,24.86
2018-08-04T22:35:09.976Z,24.88
2018-08-04T22:37:39.384Z,24.76
2018-08-04T22:40:08.663Z,24.77
2018-08-04T22:42:37.556Z,24.81
2018-08-04T22:45:17.407Z,24.84
2018-08-04T22:47:45.751Z,24.72
2018-08-04T22:50:14.062Z,24.71
2018-08-04T22:52:43.302Z,24.52
2018-08-04T22:55:11.983Z,24.38
2018-08-04T22:57:40.835Z,24.49
2018-08-04T23:00:10.917Z,24.42
2018-08-04T23:02:39.261Z,24.41
2018-08-04T23:05:11.471Z,24.32
2018-08-04T23:07:40.818Z,24.44
2018-08-04T23:10:09.214Z,24.37
2018-08-04T23:12:37.557Z,24.27
2018-08-04T23:15:05.894Z,24.24
2018-08-04T23:17:34.559Z,24.21
2018-08-04T23:20:02.973Z,24.07
2018-08-04T23:22:31.386Z,24.11
2018-08-04T23:25:01.981Z,23.97
2018-08-04T23:27:31.088Z,23.90
2018-08-04T23:30:00.602Z,23.73
2018-08-04T23:32:28.959Z,23.76
2018-08-04T23:34:58.165Z,23.79
2018-08-04T23:37:26.666Z,23.80
2018-08-04T23:39:55.121Z,23.76
2018-08-04T23:42:23.908Z,23.81
2018-08-04T23:44:52.339Z,23.64
2018-08-04T23:47:21.551Z,23.64
2018-08-04T23:49:50.387Z,23.62
2018-08-04T23:52:19.259Z,23.56
2018-08-04T23:54:47.647Z,23.34
2018-08-04T23:57:16.086Z,23.26
2018-08-04T23:59:44.718Z,23.09
